createdAt,value
2022-12-06T00:00:08.442Z,96093.06
2022-12-06T00:02:40.402Z,96091.56
2022-12-06T00:05:09.044Z,96088.03
2022-12-06T00:07:39.671Z,96093.16
2022-12-06T00:10:08.898Z,96088.03
2022-12-06T00:12:36.850Z,96092.88
2022-12-06T00:15:05.121Z,96095.94
2022-12-06T00:17:33.036Z,96097.75
2022-12-06T00:20:01.081Z,96096.16
2022-12-06T00:22:29.253Z,96113.66
2022-12-06T00:24:58.425Z,96117.50
2022-12-06T00:27:26.338Z,96091.28
2022-12-06T00:29:54.158Z,96110.72
2022-12-06T00:32:22.048Z,96114.19
2022-12-06T00:34:50.026Z,96116.00
2022-12-06T00:37:17.944Z,96093.47
2022-12-06T00:39:45.809Z,96111.31
2022-12-06T00:42:15.139Z,96104.53
2022-12-06T00:44:43.023Z,96118.53
2022-12-06T00:47:11.139Z,96079.75
2022-12-06T00:49:38.958Z,96107.75
2022-12-06T00:52:06.809Z,96102.34
2022-12-06T00:54:34.678Z,96105.59
2022-12-06T00:57:02.645Z,96093.47
2022-12-06T00:59:31.888Z,96076.25
2022-12-06T01:01:59.733Z,96088.75
2022-12-06T01:04:27.643Z,96089.16
2022-12-06T01:06:55.493Z,96098.34
2022-12-06T01:09:23.473Z,96084.31
2022-12-06T01:11:51.707Z,96070.91
2022-12-06T01:14:19.522Z,96054.00
2022-12-06T01:16:48.649Z,96044.03
2022-12-06T01:19:16.535Z,96077.38
2022-12-06T01:21:44.268Z,96073.19
2022-12-06T01:24:11.988Z,96070.56
2022-12-06T01:26:39.726Z,96077.25
2022-12-06T01:29:07.462Z,96076.69
2022-12-06T01:31:38.658Z,96075.19
2022-12-06T01:34:09.276Z,96078.94
2022-12-06T01:36:37.060Z,96078.59
2022-12-06T01:39:10.339Z,96081.41
2022-12-06T01:41:39.421Z,96078.09
2022-12-06T01:44:08.144Z,96074.91
2022-12-06T01:46:40.624Z,96070.59
2022-12-06T01:49:18.255Z,96070.22
2022-12-06T01:51:50.349Z,96070.09
2022-12-06T01:54:21.870Z,96060.53
2022-12-06T01:56:51.863Z,96066.75
2022-12-06T01:59:20.920Z,96069.44
2022-12-06T02:01:49.755Z,96054.41
2022-12-06T02:04:20.259Z,96074.50
2022-12-06T02:06:48.741Z,96044.94
2022-12-06T02:09:17.910Z,96053.19
2022-12-06T02:11:47.263Z,96062.41
2022-12-06T02:14:18.982Z,96050.78
2022-12-06T02:17:04.383Z,96033.56
2022-12-06T02:19:55.458Z,96043.94
2022-12-06T02:22:34.103Z,96042.50
2022-12-06T02:25:18.263Z,96041.47
2022-12-06T02:28:19.358Z,96035.34
2022-12-06T02:30:55.346Z,96036.38
2022-12-06T02:33:29.761Z,96026.66
2022-12-06T02:36:05.508Z,96022.28
2022-12-06T02:38:37.242Z,96009.47
2022-12-06T02:41:08.989Z,96033.81
2022-12-06T02:43:41.808Z,96033.63
2022-12-06T02:46:14.329Z,96031.16
2022-12-06T02:48:44.301Z,96031.84
2022-12-06T02:51:16.189Z,96021.00
2022-12-06T02:53:48.658Z,96011.47
2022-12-06T02:56:18.286Z,96023.78
2022-12-06T02:58:45.992Z,96022.75
2022-12-06T03:01:17.427Z,96017.78
2022-12-06T03:03:58.527Z,96025.72
2022-12-06T03:06:43.829Z,96013.28
2022-12-06T03:09:24.423Z,96005.38
2022-12-06T03:12:09.326Z,96015.16
2022-12-06T03:14:46.749Z,96011.00
2022-12-06T03:17:24.152Z,96009.63
2022-12-06T03:19:59.272Z,96004.66
2022-12-06T03:22:38.213Z,96012.88
2022-12-06T03:25:10.388Z,96009.81
2022-12-06T03:27:40.521Z,96009.44
2022-12-06T03:30:12.395Z,96006.47
2022-12-06T03:32:44.798Z,96008.84
2022-12-06T03:35:15.655Z,96010.38
2022-12-06T03:37:48.453Z,96014.84
2022-12-06T03:40:20.805Z,95999.63
2022-12-06T03:42:50.370Z,96016.22
2022-12-06T03:45:18.992Z,96020.56
2022-12-06T03:47:56.133Z,96012.31
2022-12-06T03:50:29.077Z,95998.75
2022-12-06T03:52:57.009Z,96013.19
2022-12-06T03:55:24.697Z,96004.75
2022-12-06T03:57:52.418Z,95994.84
2022-12-06T04:00:20.931Z,96008.34
2022-12-06T04:02:50.022Z,96008.13
2022-12-06T04:05:17.863Z,95999.19
2022-12-06T04:07:46.026Z,95980.41
2022-12-06T04:10:13.791Z,96002.13
2022-12-06T04:12:58.962Z,96003.34
2022-12-06T04:15:26.695Z,95986.25
2022-12-06T04:18:16.063Z,96005.03
2022-12-06T04:21:04.932Z,95985.75
2022-12-06T04:23:35.076Z,95996.13
2022-12-06T04:26:03.670Z,95995.63
2022-12-06T04:28:49.337Z,95984.88
2022-12-06T04:31:35.512Z,95987.69
2022-12-06T04:34:22.614Z,95992.34
2022-12-06T04:37:08.222Z,95991.78
2022-12-06T04:39:36.239Z,95995.19
2022-12-06T04:42:21.890Z,95989.81
2022-12-06T04:44:49.626Z,95989.09
2022-12-06T04:47:17.825Z,95985.28
2022-12-06T04:49:47.061Z,95986.06
2022-12-06T04:52:15.196Z,95989.03
2022-12-06T04:54:43.362Z,95991.13
2022-12-06T04:57:13.603Z,95988.34
2022-12-06T04:59:42.939Z,95990.00
2022-12-06T05:02:13.696Z,95987.56
2022-12-06T05:04:41.360Z,95989.84
2022-12-06T05:07:11.691Z,95997.56
2022-12-06T05:09:39.871Z,95987.63
2022-12-06T05:12:08.436Z,95988.41
2022-12-06T05:14:36.191Z,95984.06
2022-12-06T05:17:04.255Z,95987.69
2022-12-06T05:19:32.030Z,95980.94
2022-12-06T05:22:00.043Z,95988.56
2022-12-06T05:24:29.065Z,95994.13
2022-12-06T05:26:56.786Z,95990.94
2022-12-06T05:29:24.567Z,95993.75
2022-12-06T05:31:52.607Z,95964.97
2022-12-06T05:34:20.434Z,95969.63
2022-12-06T05:36:48.415Z,95950.47
2022-12-06T05:39:16.997Z,95999.38
2022-12-06T05:41:47.197Z,95972.56
2022-12-06T05:44:14.888Z,95995.38
2022-12-06T05:46:42.603Z,95995.75
2022-12-06T05:49:10.492Z,95988.22
2022-12-06T05:51:38.196Z,95987.59
2022-12-06T05:54:06.756Z,95968.75
2022-12-06T05:56:34.701Z,95986.00
2022-12-06T05:59:04.281Z,95962.47
2022-12-06T06:01:32.193Z,95965.59
2022-12-06T06:03:59.896Z,95985.38
2022-12-06T06:06:27.640Z,95987.97
2022-12-06T06:08:55.736Z,95987.19
2022-12-06T06:11:23.567Z,95988.22
2022-12-06T06:13:54.544Z,95989.22
2022-12-06T06:16:23.702Z,95978.34
2022-12-06T06:18:51.537Z,95978.22
2022-12-06T06:21:19.277Z,95982.53
2022-12-06T06:23:47.067Z,95984.13
2022-12-06T06:26:14.783Z,95986.13
2022-12-06T06:28:42.493Z,95969.44
2022-12-06T06:31:10.230Z,95981.19
2022-12-06T06:33:39.333Z,95992.88
2022-12-06T06:36:07.798Z,95994.53
2022-12-06T06:38:35.510Z,95991.28
2022-12-06T06:41:03.424Z,95997.53
2022-12-06T06:43:31.215Z,95990.75
2022-12-06T06:46:01.216Z,95993.84
2022-12-06T06:48:31.168Z,95988.28
2022-12-06T06:51:04.342Z,95984.69
2022-12-06T06:53:32.176Z,95990.69
2022-12-06T06:55:59.900Z,95983.84
2022-12-06T06:58:27.862Z,95988.59
2022-12-06T07:00:57.084Z,95993.97
2022-12-06T07:03:25.785Z,95996.13
2022-12-06T07:05:54.027Z,95991.50
2022-12-06T07:08:24.601Z,95997.06
2022-12-06T07:10:52.711Z,95994.88
2022-12-06T07:13:22.361Z,95990.75
2022-12-06T07:15:50.859Z,96008.81
2022-12-06T07:18:19.220Z,96005.06
2022-12-06T07:20:48.029Z,95999.97
2022-12-06T07:23:17.813Z,95984.00
2022-12-06T07:25:46.875Z,95999.91
2022-12-06T07:28:14.562Z,96000.19
2022-12-06T07:30:42.382Z,96000.31
2022-12-06T07:33:10.094Z,95996.06
2022-12-06T07:36:10.389Z,95985.91
2022-12-06T07:38:25.468Z,95996.25
2022-12-06T07:41:04.337Z,96004.38
2022-12-06T07:43:49.867Z,95990.22
2022-12-06T07:46:17.817Z,96006.03
2022-12-06T07:48:45.660Z,95993.31
2022-12-06T07:51:13.323Z,95979.38
2022-12-06T07:53:41.057Z,96002.47
2022-12-06T07:56:10.631Z,96005.66
2022-12-06T07:58:38.386Z,95993.66
2022-12-06T08:01:06.436Z,95990.00
2022-12-06T08:04:05.295Z,96008.06
2022-12-06T08:06:34.124Z,95988.78
2022-12-06T08:09:02.026Z,95989.31
2022-12-06T08:11:31.102Z,95990.75
2022-12-06T08:13:59.167Z,95996.56
2022-12-06T08:16:26.924Z,95984.13
2022-12-06T08:18:54.647Z,95979.31
2022-12-06T08:21:22.324Z,95985.19
2022-12-06T08:23:49.981Z,95982.50
2022-12-06T08:26:18.663Z,95984.53
2022-12-06T08:28:48.142Z,95986.13
2022-12-06T08:31:17.989Z,95985.19
2022-12-06T08:33:46.249Z,95994.38
2022-12-06T08:36:16.768Z,95992.34
2022-12-06T08:38:44.578Z,95995.41
2022-12-06T08:41:26.508Z,95991.28
2022-12-06T08:43:55.753Z,95997.31
2022-12-06T08:46:24.002Z,95992.56
2022-12-06T08:48:52.404Z,95990.72
2022-12-06T08:51:20.102Z,96003.31
2022-12-06T08:53:47.806Z,95994.28
2022-12-06T08:56:15.730Z,95995.19
2022-12-06T08:58:43.467Z,96004.81
2022-12-06T09:01:14.757Z,96000.50
2022-12-06T09:03:42.467Z,96005.03
2022-12-06T09:06:11.116Z,96006.84
2022-12-06T09:08:39.397Z,95996.91
2022-12-06T09:11:08.405Z,95999.81
2022-12-06T09:13:37.013Z,96010.59
2022-12-06T09:16:07.357Z,95999.03
2022-12-06T09:18:36.724Z,95995.75
2022-12-06T09:21:06.964Z,96007.06
2022-12-06T09:23:34.739Z,96003.91
2022-12-06T09:26:02.906Z,95985.00
2022-12-06T09:28:31.416Z,95999.81
2022-12-06T09:30:59.312Z,95995.97
2022-12-06T09:33:27.632Z,95997.69
2022-12-06T09:35:57.683Z,95998.94
2022-12-06T09:38:29.020Z,95999.59
2022-12-06T09:41:09.005Z,96001.28
2022-12-06T09:43:47.699Z,95998.44
2022-12-06T09:46:39.475Z,95999.94
2022-12-06T09:49:28.249Z,95990.66
2022-12-06T09:52:18.545Z,95989.16
2022-12-06T09:55:03.622Z,95992.44
2022-12-06T09:57:38.464Z,95978.28
2022-12-06T10:00:11.816Z,95976.22
2022-12-06T10:03:02.774Z,95973.41
2022-12-06T10:05:42.089Z,95975.13
2022-12-06T10:08:27.322Z,95963.34
2022-12-06T10:11:03.992Z,95944.31
2022-12-06T10:13:54.800Z,95950.63
2022-12-06T10:16:37.999Z,95954.28
2022-12-06T10:19:16.777Z,95951.41
2022-12-06T10:21:56.534Z,95946.41
2022-12-06T10:24:41.488Z,95946.00
2022-12-06T10:27:12.022Z,95941.59
2022-12-06T10:29:53.850Z,95943.53
2022-12-06T10:32:36.555Z,95942.50
2022-12-06T10:35:17.604Z,95900.00
2022-12-06T10:37:58.210Z,95917.94
2022-12-06T10:40:31.799Z,95924.69
2022-12-06T10:43:04.522Z,95912.25
2022-12-06T10:45:55.811Z,95935.84
2022-12-06T10:48:33.905Z,95928.84
2022-12-06T10:51:06.975Z,95930.09
2022-12-06T10:53:41.918Z,95920.59
2022-12-06T10:56:17.541Z,95910.88
2022-12-06T10:58:52.831Z,95910.53
2022-12-06T11:01:23.920Z,95906.00
2022-12-06T11:03:59.780Z,95902.28
2022-12-06T11:06:33.372Z,95911.34
2022-12-06T11:09:06.983Z,95905.72
2022-12-06T11:11:40.151Z,95920.19
2022-12-06T11:14:19.513Z,95925.75
2022-12-06T11:16:55.355Z,95917.00
2022-12-06T11:19:30.854Z,95916.53
2022-12-06T11:22:05.528Z,95912.03
2022-12-06T11:24:39.095Z,95908.19
2022-12-06T11:27:15.946Z,95917.06
2022-12-06T11:29:44.522Z,95916.59
2022-12-06T11:32:15.290Z,95899.75
2022-12-06T11:34:47.192Z,95908.81
2022-12-06T11:37:18.581Z,95912.78
2022-12-06T11:39:47.517Z,95908.31
2022-12-06T11:42:20.401Z,95912.38
2022-12-06T11:44:56.012Z,95903.78
2022-12-06T11:47:24.048Z,95907.91
2022-12-06T11:49:54.724Z,95914.25
2022-12-06T11:52:29.964Z,95918.94
2022-12-06T11:55:00.216Z,95914.06
2022-12-06T11:57:34.065Z,95915.31
2022-12-06T12:00:12.241Z,95914.56
2022-12-06T12:02:45.617Z,95911.28
2022-12-06T12:05:20.557Z,95917.53
2022-12-06T12:07:51.628Z,95916.59
2022-12-06T12:10:38.198Z,95912.63
2022-12-06T12:13:40.063Z,95909.22
2022-12-06T12:16:16.265Z,95904.75
2022-12-06T12:18:52.212Z,95902.88
2022-12-06T12:21:32.367Z,95905.47
2022-12-06T12:24:00.547Z,95902.31
2022-12-06T12:26:38.924Z,95896.63
2022-12-06T12:29:17.248Z,95892.97
2022-12-06T12:31:54.438Z,95888.31
2022-12-06T12:34:23.444Z,95884.50
2022-12-06T12:36:53.316Z,95876.69
2022-12-06T12:39:27.599Z,95877.41
2022-12-06T12:41:55.295Z,95882.56
2022-12-06T12:44:42.889Z,95868.06
2022-12-06T12:47:19.536Z,95865.69
2022-12-06T12:50:02.067Z,95867.59
2022-12-06T12:52:32.315Z,95855.25
2022-12-06T12:55:02.312Z,95855.81
2022-12-06T12:57:30.382Z,95859.94
2022-12-06T12:59:59.491Z,95813.59
2022-12-06T13:02:30.796Z,95854.16
2022-12-06T13:05:31.433Z,95858.91
2022-12-06T13:07:53.082Z,95848.28
2022-12-06T13:10:28.030Z,95856.28
2022-12-06T13:12:59.532Z,95852.09
2022-12-06T13:15:35.093Z,95848.84
2022-12-06T13:18:11.190Z,95847.03
2022-12-06T13:20:39.121Z,95818.34
2022-12-06T13:23:12.398Z,95830.97
2022-12-06T13:25:40.332Z,95852.25
2022-12-06T13:28:16.698Z,95853.84
2022-12-06T13:30:47.849Z,95848.78
2022-12-06T13:33:21.335Z,95860.66
2022-12-06T13:35:55.397Z,95849.09
2022-12-06T13:38:27.163Z,95851.06
2022-12-06T13:40:56.373Z,95848.53
2022-12-06T13:44:00.440Z,95834.41
2022-12-06T13:46:34.529Z,95832.41
2022-12-06T13:49:24.730Z,95826.00
2022-12-06T13:51:52.899Z,95824.50
2022-12-06T13:54:32.417Z,95832.13
2022-12-06T13:57:03.940Z,95766.88
2022-12-06T13:59:49.647Z,95829.97
2022-12-06T14:02:52.403Z,95803.47
2022-12-06T14:08:35.763Z,95825.53
2022-12-06T14:11:28.303Z,95826.25
2022-12-06T14:14:03.964Z,95832.13
2022-12-06T14:16:36.607Z,95834.94
2022-12-06T14:19:15.867Z,95813.75
2022-12-06T14:21:45.463Z,95837.56
2022-12-06T14:24:31.613Z,95830.44
2022-12-06T14:27:07.791Z,95831.69
2022-12-06T14:29:35.947Z,95828.53
2022-12-06T14:32:03.845Z,95829.34
2022-12-06T14:34:35.416Z,95803.94
2022-12-06T14:37:12.393Z,95795.47
2022-12-06T14:39:40.157Z,95827.44
2022-12-06T14:42:35.930Z,95824.75
2022-12-06T14:45:04.290Z,95825.03
2022-12-06T14:47:33.172Z,95851.59
2022-12-06T14:50:21.035Z,95838.22
2022-12-06T14:53:04.188Z,95836.44
2022-12-06T14:55:34.361Z,95832.84
2022-12-06T14:58:04.861Z,95825.25
2022-12-06T15:00:37.757Z,95810.25
2022-12-06T15:03:25.418Z,95783.09
2022-12-06T15:06:14.606Z,95837.34
2022-12-06T15:08:44.276Z,95831.72
2022-12-06T15:11:50.878Z,95838.09
2022-12-06T15:14:21.995Z,95840.97
2022-12-06T15:16:59.018Z,95834.88
2022-12-06T15:19:27.659Z,95837.47
2022-12-06T15:21:56.859Z,95840.06
2022-12-06T15:24:26.405Z,95816.88
2022-12-06T15:26:54.707Z,95823.13
2022-12-06T15:29:22.684Z,95827.53
2022-12-06T15:31:54.756Z,95819.44
2022-12-06T15:34:25.761Z,95802.22
2022-12-06T15:37:15.122Z,95824.56
2022-12-06T15:39:43.948Z,95829.22
2022-12-06T15:42:17.655Z,95817.03
2022-12-06T15:45:01.036Z,95828.09
2022-12-06T15:47:29.259Z,95823.34
2022-12-06T15:49:58.226Z,95782.00
2022-12-06T15:52:27.458Z,95831.09
2022-12-06T15:54:57.584Z,95836.84
2022-12-06T15:57:26.381Z,95813.59
2022-12-06T15:59:54.109Z,95813.63
2022-12-06T16:02:21.883Z,95801.53
2022-12-06T16:04:51.239Z,95669.72
2022-12-06T16:07:19.645Z,95678.34
2022-12-06T16:09:48.115Z,95805.06
2022-12-06T16:12:17.272Z,95824.44
2022-12-06T16:14:45.010Z,95831.81
2022-12-06T16:17:12.953Z,95816.28
2022-12-06T16:19:58.053Z,95827.03
2022-12-06T16:22:45.759Z,95823.16
2022-12-06T16:25:12.460Z,95817.72
2022-12-06T16:27:41.519Z,95805.84
2022-12-06T16:30:10.630Z,95820.25
2022-12-06T16:32:38.459Z,95820.47
2022-12-06T16:35:06.695Z,95833.72
2022-12-06T16:37:34.426Z,95815.59
2022-12-06T16:40:02.137Z,95816.66
2022-12-06T16:42:29.949Z,95810.69
2022-12-06T16:44:59.188Z,95814.38
2022-12-06T16:49:53.681Z,95786.31
2022-12-06T16:52:21.482Z,95737.38
2022-12-06T16:54:50.228Z,95822.88
2022-12-06T16:57:19.439Z,95813.53
2022-12-06T16:59:47.159Z,95827.63
2022-12-06T17:02:27.509Z,95742.25
2022-12-06T17:04:55.691Z,95824.94
2022-12-06T17:07:23.535Z,95811.22
2022-12-06T17:09:51.310Z,95737.78
2022-12-06T17:12:19.116Z,95818.75
2022-12-06T17:14:47.162Z,95834.28
2022-12-06T17:17:16.443Z,95820.19
2022-12-06T17:19:45.665Z,95836.56
2022-12-06T17:22:16.372Z,95816.34
2022-12-06T17:24:44.426Z,95838.19
2022-12-06T17:27:14.503Z,95821.09
2022-12-06T17:29:48.215Z,95729.47
2022-12-06T17:32:20.483Z,95848.81
2022-12-06T17:34:49.624Z,95843.16
2022-12-06T17:37:17.392Z,95769.78
2022-12-06T17:39:45.149Z,95827.19
2022-12-06T17:42:31.544Z,95767.19
2022-12-06T17:45:00.787Z,95851.09
2022-12-06T17:47:29.066Z,95859.63
2022-12-06T17:49:58.441Z,95851.38
2022-12-06T17:52:26.241Z,95839.63
2022-12-06T17:54:53.999Z,95703.91
2022-12-06T17:57:21.732Z,95848.06
2022-12-06T17:59:49.563Z,95838.25
2022-12-06T18:02:19.949Z,95835.50
2022-12-06T18:04:48.407Z,95848.66
2022-12-06T18:07:18.347Z,95847.63
2022-12-06T18:09:46.571Z,95846.03
2022-12-06T18:12:15.825Z,95851.81
2022-12-06T18:14:43.678Z,95856.53
2022-12-06T18:17:11.544Z,95770.22
2022-12-06T18:19:40.300Z,95793.38
2022-12-06T18:22:08.286Z,95778.50
2022-12-06T18:24:37.576Z,95846.06
2022-12-06T18:27:06.004Z,95816.22
2022-12-06T18:29:34.464Z,95852.97
2022-12-06T18:32:02.377Z,95841.78
2022-12-06T18:34:30.338Z,95836.09
2022-12-06T18:36:58.071Z,95846.38
2022-12-06T18:39:27.946Z,95853.25
2022-12-06T18:41:57.257Z,95851.13
2022-12-06T18:44:25.368Z,95840.06
2022-12-06T18:46:53.170Z,95849.91
2022-12-06T18:49:20.982Z,95801.56
2022-12-06T18:51:48.701Z,95846.44
2022-12-06T18:54:16.466Z,95779.66
2022-12-06T18:56:44.319Z,95874.84
2022-12-06T18:59:13.578Z,95865.28
2022-12-06T19:01:42.884Z,95858.88
2022-12-06T19:04:14.655Z,95868.72
2022-12-06T19:06:44.214Z,95865.41
2022-12-06T19:09:14.335Z,95848.47
2022-12-06T19:11:46.660Z,95882.28
2022-12-06T19:14:17.990Z,95879.59
2022-12-06T19:16:47.403Z,95878.00
2022-12-06T19:19:17.743Z,95855.25
2022-12-06T19:21:46.037Z,95835.34
2022-12-06T19:24:16.512Z,95864.63
2022-12-06T19:26:44.382Z,95863.13
2022-12-06T19:29:12.220Z,95861.81
2022-12-06T19:31:41.351Z,95863.81
2022-12-06T19:34:15.681Z,95873.91
2022-12-06T19:36:43.458Z,95868.13
2022-12-06T19:39:11.958Z,95864.63
2022-12-06T19:41:53.601Z,95856.88
2022-12-06T19:44:21.416Z,95860.53
2022-12-06T19:46:50.660Z,95875.41
2022-12-06T19:49:21.372Z,95873.53
2022-12-06T19:51:49.808Z,95873.97
2022-12-06T19:54:19.861Z,95873.41
2022-12-06T19:56:49.148Z,95865.38
2022-12-06T19:59:16.997Z,95861.81
2022-12-06T20:01:46.144Z,95869.09
2022-12-06T20:04:17.339Z,95870.81
2022-12-06T20:06:47.491Z,95855.09
2022-12-06T20:09:15.489Z,95863.75
2022-12-06T20:12:04.782Z,95858.03
2022-12-06T20:14:37.765Z,95859.63
2022-12-06T20:17:09.274Z,95860.81
2022-12-06T20:19:38.799Z,95861.53
2022-12-06T20:22:06.677Z,95860.94
2022-12-06T20:24:44.742Z,95685.59
2022-12-06T20:27:12.943Z,95872.94
2022-12-06T20:29:40.917Z,95868.75
2022-12-06T20:32:11.175Z,95858.81
2022-12-06T20:34:40.444Z,95853.25
2022-12-06T20:37:08.223Z,95859.84
2022-12-06T20:39:36.682Z,95843.78
2022-12-06T20:42:06.892Z,95855.28
2022-12-06T20:44:36.607Z,95851.41
2022-12-06T20:47:04.808Z,95857.09
2022-12-06T20:49:32.634Z,95855.03
2022-12-06T20:52:03.510Z,95857.09
2022-12-06T20:54:32.120Z,95853.53
2022-12-06T20:56:59.872Z,95855.44
2022-12-06T20:59:29.257Z,95849.63
2022-12-06T21:01:57.094Z,95855.66
2022-12-06T21:04:25.919Z,95853.53
2022-12-06T21:06:53.836Z,95823.81
2022-12-06T21:09:23.221Z,95851.94
2022-12-06T21:11:51.244Z,95855.66
2022-12-06T21:14:19.415Z,95853.13
2022-12-06T21:16:47.221Z,95810.13
2022-12-06T21:19:17.746Z,95818.59
2022-12-06T21:21:48.115Z,95858.63
2022-12-06T21:24:18.507Z,95871.09
2022-12-06T21:26:47.914Z,95862.25
2022-12-06T21:29:17.466Z,95777.91
2022-12-06T21:31:46.290Z,95863.75
2022-12-06T21:34:15.474Z,95867.47
2022-12-06T21:36:43.426Z,95847.22
2022-12-06T21:39:11.324Z,95868.97
2022-12-06T21:41:39.606Z,95869.97
2022-12-06T21:44:08.820Z,95867.72
2022-12-06T21:46:36.711Z,95877.75
2022-12-06T21:49:04.485Z,95783.13
2022-12-06T21:51:33.023Z,95827.72
2022-12-06T21:54:01.431Z,95845.00
2022-12-06T21:56:31.145Z,95879.47
2022-12-06T21:59:01.150Z,95864.91
2022-12-06T22:01:32.539Z,95878.81
2022-12-06T22:04:03.046Z,95873.47
2022-12-06T22:06:32.418Z,95840.91
2022-12-06T22:09:02.110Z,95864.69
2022-12-06T22:11:30.645Z,95874.63
2022-12-06T22:14:01.307Z,95874.72
2022-12-06T22:16:30.618Z,95869.75
2022-12-06T22:18:58.830Z,95803.31
2022-12-06T22:21:28.142Z,95860.59
2022-12-06T22:23:57.883Z,95853.13
2022-12-06T22:26:28.109Z,95869.19
2022-12-06T22:28:56.240Z,95874.16
2022-12-06T22:31:26.368Z,95876.44
2022-12-06T22:33:56.942Z,95875.53
2022-12-06T22:36:25.216Z,95875.25
2022-12-06T22:38:54.294Z,95882.91
2022-12-06T22:41:22.875Z,95878.72
2022-12-06T22:43:51.895Z,95887.53
2022-12-06T22:46:20.199Z,95813.94
2022-12-06T22:48:48.702Z,95868.47
2022-12-06T22:51:22.081Z,95880.06
2022-12-06T22:53:54.156Z,95875.97
2022-12-06T22:56:21.989Z,95856.31
2022-12-06T22:58:49.847Z,95874.66
2022-12-06T23:01:19.796Z,95889.59
2022-12-06T23:03:49.976Z,95861.44
2022-12-06T23:06:20.806Z,95853.38
2022-12-06T23:08:48.741Z,95812.34
2022-12-06T23:11:19.168Z,95875.47
2022-12-06T23:13:47.349Z,95875.25
2022-12-06T23:16:17.281Z,95871.75
2022-12-06T23:18:45.518Z,95866.63
2022-12-06T23:21:15.332Z,95874.53
2022-12-06T23:23:47.196Z,95867.84
2022-12-06T23:26:17.443Z,95873.75
2022-12-06T23:28:46.107Z,95850.81
2022-12-06T23:31:15.972Z,95851.72
2022-12-06T23:33:44.612Z,95866.41
2022-12-06T23:36:14.303Z,95866.66
2022-12-06T23:38:44.094Z,95768.50
2022-12-06T23:41:14.009Z,95737.44
2022-12-06T23:43:42.587Z,95846.50
2022-12-06T23:46:12.989Z,95875.81
2022-12-06T23:48:40.802Z,95874.13
2022-12-06T23:51:11.487Z,95778.34
2022-12-06T23:53:40.062Z,95878.66
2022-12-06T23:56:11.238Z,95880.72
2022-12-06T23:58:39.508Z,95876.63
